Member area
Imprimable
Charleroi, 28/04/2019, BEL - Lampiris 15km de Charleroi
List of reports > Delhalle - 14.4 km - Result
Search: Page: [1]
56 Entries
 
Complains are not accepted anymore. Results are final.
PlaceNrNameAgeNATLeagueTeamRealTimeTkmMoy.ScrPtsCity
1.1356LOPEZ NAVA DIDIER48BELSET ATHL54:4554:473:50 15.70131050OLNETéléchargez votre diplome!
2.1291ESTEBEZ ANDRÉ46BEL55:0655:083:51 15.60151042GRIVEGNÉETéléchargez votre diplome!
3.1024RUSSO TONI49ITA55:5656:003:55 15.36191024SOUVRETTéléchargez votre diplome!
4.1630GOUVERNEUR BENOIT HENRI46BEL57:5558:014:03 14.8230983CHARLEROITéléchargez votre diplome!
5.1340LA TORRE FRANCESCO46ITA58:5559:014:08 14.5736962BRUXELLESTéléchargez votre diplome!
6.641BRUNIN CHRISTOPHE45BELGAG1:02:341:02:414:23 13.7259888GEMBLOUXTéléchargez votre diplome!
7.695DE DAPPER DAVID46BELCSFMYSTERE1:02:551:02:554:24 13.6762880BRUXELLESTéléchargez votre diplome!
8.354DETEZ VALERY45BELETCHIEVRES1:02:221:03:034:24 13.6464889ROSIÈRESTéléchargez votre diplome!
9.1333KAMP OLIVIER45BEL1:03:061:03:144:25 13.6066875WAVRETéléchargez votre diplome!
10.620SCHOONJANS MICHEL46BELMYSTERE1:03:171:03:234:26 13.5768871UCCLETéléchargez votre diplome!
11.1749RAMI SAID47BEL1:03:311:03:364:27 13.5271866MONTIGNIES SUR SAMBRETéléchargez votre diplome!
12.1007MARCHI STEPHANE47BELSERIAL TRAILEURS1:04:481:04:524:32 13.2689837ANDERLUESTéléchargez votre diplome!
13.823DUMOULIN LAURENT49BEL1:05:091:05:154:34 13.1896828MONSTéléchargez votre diplome!
14.1269DELPLANCQ DAVID46BELINDIVIDUEL1:06:161:06:234:38 12.96114802HAINE-SAINT-PAULTéléchargez votre diplome!
15.541ZICOT CHRISTOPHE45BELUAC1:06:021:06:434:40 12.89118803AUVELAISTéléchargez votre diplome!
16.1368MERCENIER DIDIER48BELZATAC NAMUR1:09:021:09:174:50 12.41148743VEDRINTéléchargez votre diplome!
17.1352LENOIR OLIVIER48BELGROUPE GOBERT RUNNING TEA1:09:521:09:594:53 12.29156726GOTTIGNIESTéléchargez votre diplome!
18.1175TEMPERMAN GAËTAN48BELUMONS1:10:201:10:334:56 12.19162717MOUSCRONTéléchargez votre diplome!
19.1782NAMORO NAPOLEON48BEL1:09:581:10:344:56 12.19163722CHATELINEAUTéléchargez votre diplome!
20.1178MARQUET BENOIT45BELINSTITUT NOTRE DAME CHARL1:10:271:10:424:56 12.16166713CLERMONT (NAM.)Téléchargez votre diplome!
21.1598BOMBLED CHRISTOPHE46BELRUN'HEURE CERFONTAINE1:10:201:10:494:57 12.14169714CERFONTAINETéléchargez votre diplome!
22.1604MALOTAUX JEAN-FRANÇOIS47BELZATOPEK ACADÉMIE1:10:441:10:534:57 12.13172706WARNANTTéléchargez votre diplome!
23.1014DIEGO DIEGO48BELNUT'RINO1:11:121:11:365:00 12.01188692BOIS-D'HAINETéléchargez votre diplome!
24.1664EVERARD ETIENNE SERGE45BEL1:12:011:12:135:03 11.91195677WALCOURTTéléchargez votre diplome!
25.514GREVISSE DAVID45BELRONVAU1:13:011:13:015:06 11.78208656DION VALMONTTéléchargez votre diplome!
26.923CEULEMANS NICOLAS49BELANTILOB1:13:061:13:525:10 11.64226647INCOURTTéléchargez votre diplome!
27.1672FALAGIARDA STEPHAN45FRA1:14:161:15:045:15 11.46251618HETTANGE-GRANDETéléchargez votre diplome!
28.189ALLOUCHI SOULI47BELUAC1:14:341:15:155:16 11.43258611WANFERCEE-BAULETTéléchargez votre diplome!
29.1612DOYEN DAVID45BELALTERNATIVE 211:15:231:15:535:18 11.33281589MONT-SUR-MARCHIENNETéléchargez votre diplome!
30.1309GILLARD PHILIPPE46BEL1:15:281:16:155:20 11.28288585MONCEAU-SUR-SAMBRETéléchargez votre diplome!
31.1252CHÂTELAIN GEOFFREY46BEL1:15:471:16:275:20 11.25295577HAM SUR HEURETéléchargez votre diplome!
32.1737GOISSE OLIVIER46BEL1:17:101:17:335:25 11.09328544WALCOURTTéléchargez votre diplome!
33.1234BALTHAZART BRUNO46BEL1:16:531:17:385:25 11.08330546MÉLINTéléchargez votre diplome!
34.1720DELCOURT ANTOINE45BELRUNNING TEAM ABD1:16:411:17:425:26 11.07332548LIEGETéléchargez votre diplome!
35.1428VANHERCK MICHEL47BEL1:17:341:18:195:28 10.98346530FORVILLETéléchargez votre diplome!
36.1434VENTURA FRÉDÉRIC45BELRUN FOR C1:17:491:18:425:30 10.93350524MARCINELLETéléchargez votre diplome!
37.1761POULET PASCAL49BEL1:18:271:19:105:32 10.86359512LA LONGUEVILLETéléchargez votre diplome!
38.206LEDUC STEPHANE48BELUACUAC1:21:391:21:565:43 10.50405449CHÂTELETTéléchargez votre diplome!
39.1621RIGON DAVID47BEL1:21:491:22:405:47 10.40422439CARLEROITéléchargez votre diplome!
40.1341LAVIOLETTE MARIANNE49BELZAT AC YVOIR GODINNE1:22:411:22:545:48 10.37431424LISOGNETéléchargez votre diplome!
41.1037CIREDDU FABIO46BELRUN FOR C1:22:181:23:125:49 10.34436426DAMPREMYTéléchargez votre diplome!
42.1273DENIS THIERRY48BELESM1:23:151:24:075:53 10.22448409GOSSELIESTéléchargez votre diplome!
43.273SABLON DOMINIQUE49BELCRAC1:23:271:24:095:53 10.22449406FORCHIES-LA-MARCHETéléchargez votre diplome!
44.1082BAUTHIER CHRISTOPHE46BELCPMV NALINNES1:24:061:24:415:55 10.15462392TARCIENNETéléchargez votre diplome!
45.1100DECLERCQ FRANÇOIS48BELZATAC CHARLEROI1:24:101:24:435:55 10.15464390LODELINSARTTéléchargez votre diplome!
46.1632ZANELLI GEOFFREY49BEL1:24:231:24:455:55 10.15465387EGHEZEETéléchargez votre diplome!
47.1210ZAMPARINI BERTRAND49BELRUNNING CLUB GHDC1:25:141:25:375:59 10.04486367MONTIGNY-LE-TILLEULTéléchargez votre diplome!
48.1427VANDROMME XAVIER47BEL1:27:081:27:466:08 9.80523327FONTAINE L'EVÊQUETéléchargez votre diplome!
49.1226ABELS BERTRAND47BELJEM ACTIVE1:28:241:28:246:11 9.73545301SPYTéléchargez votre diplome!
50.1232AMAND VINCENT49BEL1:28:171:28:266:11 9.73546303FLOBECQTéléchargez votre diplome!
51.1101DUPANLOUP FRÉDÉRIC45BELZATAC CHARLEROI1:29:591:30:246:19 9.51571271BOUFFIOULXTéléchargez votre diplome!
52.1441XHARDEZ LAURENT45BEL1:30:441:31:156:23 9.42583256ANDERLUESTéléchargez votre diplome!
53.1027DEWEZ LAURENT47BEL1:31:431:32:246:27 9.31601237CHARLEROITéléchargez votre diplome!
54.1092ANAGNOSTOU EFSTRATIOS45BELZATAC CHARLEROI1:32:581:33:326:32 9.19619215COUILLETTéléchargez votre diplome!
55.274DERUYCK SERGE46BEL1:37:171:37:546:50 8.78675141BAISY-THYTéléchargez votre diplome!
56.1620ANTOIME JEANMARC47BEL1:45:021:45:397:23 8.1472537GOURDINNETéléchargez votre diplome!
DNF: did not finish; DSQ: disqualified; Speed in km/h
Page: [1]